Time;durP1;ratioP1;P1;durP2;ratioP2;P2;SDS_P1;SDS_P2;PMS_P1;PMS_P2;Temp;Humidity;BMP_temperature;BMP_pressure;BME280_temperature;BME280_humidity;BME280_pressure;Samples;Min_cycle;Max_cycle;Signal;HPM_P1;HPM_P2
2023/09/08 00:00:03;;;;;;;8.15;6.87;;;;;;;;;;4382029;32;317902;-80
2023/09/08 00:02:30;;;;;;;7.45;5.53;;;;;;;;;;4368567;32;316663;-80
2023/09/08 00:04:57;;;;;;;9.57;5.47;;;;;;;;;;4382008;32;316707;-80
2023/09/08 00:07:25;;;;;;;7.32;5.45;;;;;;;;;;4374930;32;316705;-81
2023/09/08 00:09:53;;;;;;;9.77;5.57;;;;;;;;;;4378142;32;316930;-80
2023/09/08 00:12:21;;;;;;;10.40;5.40;;;;;;;;;;4380894;32;316727;-80
2023/09/08 00:14:50;;;;;;;9.52;5.82;;;;;;;;;;4369596;32;317935;-80
2023/09/08 00:17:17;;;;;;;7.40;4.82;;;;;;;;;;4381586;32;316945;-80
2023/09/08 00:19:45;;;;;;;10.68;5.72;;;;;;;;;;4368052;32;316888;-80
2023/09/08 00:22:13;;;;;;;11.73;5.82;;;;;;;;;;4379666;32;317798;-80
2023/09/08 00:24:41;;;;;;;9.13;5.15;;;;;;;;;;4370789;32;317878;-80
2023/09/08 00:27:09;;;;;;;8.98;5.95;;;;;;;;;;4382105;32;316861;-80
2023/09/08 00:29:39;;;;;;;9.52;5.12;;;;;;;;;;4367616;32;316787;-83
2023/09/08 00:32:09;;;;;;;8.02;5.62;;;;;;;;;;4380470;32;316927;-79
2023/09/08 00:34:37;;;;;;;9.65;5.20;;;;;;;;;;4370388;32;351023;-80
2023/09/08 00:37:07;;;;;;;8.27;5.10;;;;;;;;;;4380983;32;316794;-80
2023/09/08 00:39:41;;;;;;;5.93;4.82;;;;;;;;;;4368092;32;316998;-80
2023/09/08 00:42:09;;;;;;;7.75;5.07;;;;;;;;;;4383457;32;316935;-80
2023/09/08 00:44:38;;;;;;;9.95;5.65;;;;;;;;;;4372431;32;317028;-80
2023/09/08 00:47:06;;;;;;;7.47;4.82;;;;;;;;;;4384131;32;317079;-80
2023/09/08 00:49:41;;;;;;;9.90;5.60;;;;;;;;;;4370378;32;317272;-86
2023/09/08 00:52:08;;;;;;;7.62;5.03;;;;;;;;;;4382711;32;316942;-81
2023/09/08 00:54:36;;;;;;;10.00;4.87;;;;;;;;;;4372365;32;316958;-80
2023/09/08 00:57:05;;;;;;;5.40;4.82;;;;;;;;;;4382465;32;317730;-80
2023/09/08 00:59:46;;;;;;;10.33;4.87;;;;;;;;;;4373640;32;352519;-81
2023/09/08 01:02:15;;;;;;;10.15;5.03;;;;;;;;;;4380471;32;317997;-80
2023/09/08 01:04:46;;;;;;;6.85;5.15;;;;;;;;;;4372699;32;318571;-79
2023/09/08 01:07:15;;;;;;;7.30;4.90;;;;;;;;;;4385166;32;316911;-79
2023/09/08 01:09:44;;;;;;;7.93;5.15;;;;;;;;;;4367660;32;317444;-80
2023/09/08 01:12:12;;;;;;;8.27;5.53;;;;;;;;;;4382978;32;316871;-79
2023/09/08 01:14:40;;;;;;;7.15;5.95;;;;;;;;;;4372231;32;317446;-80
2023/09/08 01:17:12;;;;;;;8.82;6.50;;;;;;;;;;4384407;32;317076;-80
2023/09/08 01:19:44;;;;;;;11.38;5.72;;;;;;;;;;4329899;32;316732;-82
2023/09/08 01:22:35;;;;;;;7.00;6.30;;;;;;;;;;4383728;32;317840;-80
2023/09/08 01:25:27;;;;;;;8.18;5.97;;;;;;;;;;4347819;32;419778;-79
2023/09/08 01:27:58;;;;;;;9.18;5.93;;;;;;;;;;4364924;32;419805;-80
2023/09/08 01:30:32;;;;;;;6.43;5.47;;;;;;;;;;4371425;32;316794;-80
2023/09/08 01:33:01;;;;;;;6.80;6.05;;;;;;;;;;4382579;32;316810;-80
2023/09/08 01:35:29;;;;;;;14.38;6.45;;;;;;;;;;4369240;32;316586;-80
2023/09/08 01:37:56;;;;;;;7.32;6.15;;;;;;;;;;4359303;32;318044;-80
2023/09/08 01:40:32;;;;;;;6.90;5.90;;;;;;;;;;4373221;32;316894;-81
2023/09/08 01:43:00;;;;;;;9.30;7.00;;;;;;;;;;4382517;32;316714;-80
2023/09/08 01:45:28;;;;;;;10.20;6.70;;;;;;;;;;4373307;32;317205;-79
2023/09/08 01:47:56;;;;;;;12.93;7.05;;;;;;;;;;4378392;32;317934;-79
2023/09/08 01:50:25;;;;;;;11.98;6.55;;;;;;;;;;4350808;32;317908;-80
2023/09/08 01:52:53;;;;;;;8.98;5.95;;;;;;;;;;4383658;32;318083;-79
2023/09/08 01:55:20;;;;;;;12.63;6.62;;;;;;;;;;4382452;32;316822;-79
2023/09/08 01:57:49;;;;;;;10.27;6.57;;;;;;;;;;4368998;32;349448;-79
2023/09/08 02:00:18;;;;;;;22.48;7.45;;;;;;;;;;4379945;32;353990;-79
2023/09/08 02:02:45;;;;;;;9.10;6.35;;;;;;;;;;4372002;32;318130;-79
2023/09/08 02:05:13;;;;;;;7.57;6.03;;;;;;;;;;4382929;32;316717;-78
2023/09/08 02:07:42;;;;;;;12.48;6.12;;;;;;;;;;4368331;32;317965;-78
2023/09/08 02:10:11;;;;;;;10.93;6.22;;;;;;;;;;4381160;32;317633;-78
2023/09/08 02:12:38;;;;;;;7.15;5.75;;;;;;;;;;4372553;32;317989;-78
2023/09/08 02:15:10;;;;;;;6.93;5.60;;;;;;;;;;4383298;32;316670;-78
2023/09/08 02:17:45;;;;;;;8.20;5.87;;;;;;;;;;4365002;32;316934;-79
2023/09/08 02:20:13;;;;;;;7.18;6.00;;;;;;;;;;4381889;32;316901;-82
2023/09/08 02:22:40;;;;;;;7.70;5.90;;;;;;;;;;4372743;32;317000;-78
2023/09/08 02:25:09;;;;;;;12.50;6.10;;;;;;;;;;4382379;32;316662;-79
2023/09/08 02:27:37;;;;;;;10.93;6.45;;;;;;;;;;4362944;32;317899;-81
2023/09/08 02:30:05;;;;;;;10.77;6.80;;;;;;;;;;4383487;32;318039;-78
2023/09/08 02:32:35;;;;;;;9.50;5.47;;;;;;;;;;4371880;32;318145;-79
2023/09/08 02:35:03;;;;;;;11.80;6.03;;;;;;;;;;4379808;32;317050;-79
2023/09/08 02:37:30;;;;;;;9.57;6.03;;;;;;;;;;4370898;32;318077;-78
2023/09/08 02:39:57;;;;;;;11.77;6.00;;;;;;;;;;4381546;32;316729;-79
2023/09/08 02:42:25;;;;;;;9.48;6.05;;;;;;;;;;4371889;32;318485;-79
2023/09/08 02:44:53;;;;;;;11.27;6.28;;;;;;;;;;4384973;32;317247;-79
2023/09/08 02:47:20;;;;;;;8.50;5.95;;;;;;;;;;4384978;32;317899;-79
2023/09/08 02:49:49;;;;;;;9.25;6.10;;;;;;;;;;4369544;32;316958;-79
2023/09/08 02:52:19;;;;;;;8.52;6.00;;;;;;;;;;4386973;32;317004;-80
2023/09/08 02:54:46;;;;;;;14.85;7.03;;;;;;;;;;4374641;32;317077;-86
2023/09/08 02:57:14;;;;;;;10.15;5.82;;;;;;;;;;4383390;32;317657;-78
2023/09/08 02:59:41;;;;;;;8.98;6.25;;;;;;;;;;4368678;32;318022;-79
2023/09/08 03:02:09;;;;;;;8.30;6.37;;;;;;;;;;4381307;32;316758;-79
2023/09/08 03:04:36;;;;;;;25.60;6.62;;;;;;;;;;4372770;32;317000;-79
2023/09/08 03:07:05;;;;;;;8.45;6.62;;;;;;;;;;4382104;32;317874;-79
2023/09/08 03:09:35;;;;;;;7.37;5.80;;;;;;;;;;4370487;32;317012;-80
2023/09/08 03:12:03;;;;;;;6.50;5.60;;;;;;;;;;4380328;32;317371;-79
2023/09/08 03:14:30;;;;;;;11.00;6.78;;;;;;;;;;4373138;32;316784;-79
2023/09/08 03:16:58;;;;;;;11.43;5.97;;;;;;;;;;4380684;32;318541;-79
2023/09/08 03:19:25;;;;;;;12.57;6.30;;;;;;;;;;4371606;32;317888;-81
2023/09/08 03:21:53;;;;;;;7.32;6.25;;;;;;;;;;4378136;32;317937;-80
2023/09/08 03:24:27;;;;;;;8.30;5.95;;;;;;;;;;4382453;32;316991;-79
2023/09/08 03:26:55;;;;;;;7.82;5.90;;;;;;;;;;4367451;32;416208;-79
2023/09/08 03:29:23;;;;;;;8.13;6.47;;;;;;;;;;4382133;32;316938;-79
2023/09/08 03:31:50;;;;;;;9.85;6.50;;;;;;;;;;4363509;32;416223;-79
2023/09/08 03:34:20;;;;;;;18.10;7.37;;;;;;;;;;4382398;32;316942;-80
2023/09/08 03:36:47;;;;;;;72.60;31.05;;;;;;;;;;4373677;32;318008;-80
2023/09/08 03:39:14;;;;;;;152.10;65.53;;;;;;;;;;4384088;32;318854;-78
2023/09/08 03:41:43;;;;;;;104.90;45.73;;;;;;;;;;4368209;32;320001;-79
2023/09/08 03:44:11;;;;;;;61.78;31.70;;;;;;;;;;4384005;32;320376;-80
2023/09/08 03:46:38;;;;;;;31.55;18.15;;;;;;;;;;4368682;32;319272;-81
2023/09/08 03:49:06;;;;;;;19.80;12.43;;;;;;;;;;4383223;32;318924;-79
2023/09/08 03:51:34;;;;;;;21.92;13.43;;;;;;;;;;4373232;32;318724;-80
2023/09/08 03:54:02;;;;;;;21.48;16.12;;;;;;;;;;4379632;32;319056;-79
2023/09/08 03:56:30;;;;;;;22.30;14.43;;;;;;;;;;4369618;32;318925;-82
2023/09/08 03:58:58;;;;;;;10.95;9.18;;;;;;;;;;4381520;32;319071;-79
2023/09/08 04:01:26;;;;;;;14.68;9.75;;;;;;;;;;4371193;32;318090;-79
2023/09/08 04:03:53;;;;;;;9.15;7.50;;;;;;;;;;4379565;32;317877;-79
2023/09/08 04:06:21;;;;;;;15.82;7.57;;;;;;;;;;4383130;32;315600;-80
2023/09/08 04:08:49;;;;;;;15.23;8.77;;;;;;;;;;4373205;32;317980;-79
2023/09/08 04:11:16;;;;;;;12.63;7.53;;;;;;;;;;4381318;32;317821;-86
2023/09/08 04:13:44;;;;;;;13.50;7.47;;;;;;;;;;4368615;32;318116;-80
2023/09/08 04:16:13;;;;;;;18.23;8.60;;;;;;;;;;4383629;32;317834;-80
2023/09/08 04:18:40;;;;;;;10.25;6.57;;;;;;;;;;4374671;32;318031;-81
2023/09/08 04:21:08;;;;;;;11.82;9.57;;;;;;;;;;4384936;32;318039;-81
2023/09/08 04:23:36;;;;;;;19.75;11.63;;;;;;;;;;4372613;32;318223;-82
2023/09/08 04:26:04;;;;;;;11.02;8.82;;;;;;;;;;4385430;32;319127;-80
2023/09/08 04:28:31;;;;;;;20.12;10.02;;;;;;;;;;4376301;32;318071;-86
2023/09/08 04:30:59;;;;;;;16.55;9.88;;;;;;;;;;4385118;32;348684;-80
2023/09/08 04:33:29;;;;;;;11.25;9.55;;;;;;;;;;4375142;32;317905;-80
2023/09/08 04:35:56;;;;;;;15.30;9.73;;;;;;;;;;4380585;32;317984;-79
2023/09/08 04:38:23;;;;;;;16.15;9.55;;;;;;;;;;4383173;32;318306;-82
2023/09/08 04:40:51;;;;;;;10.38;7.32;;;;;;;;;;4373071;32;417196;-81
2023/09/08 04:43:18;;;;;;;14.18;7.55;;;;;;;;;;4382280;32;317788;-79
2023/09/08 04:45:46;;;;;;;10.40;7.47;;;;;;;;;;4370285;32;318669;-80
2023/09/08 04:48:13;;;;;;;11.65;7.57;;;;;;;;;;4385150;32;318194;-82
2023/09/08 04:50:42;;;;;;;9.95;6.55;;;;;;;;;;4375796;32;318145;-79
2023/09/08 04:53:09;;;;;;;11.57;6.45;;;;;;;;;;4386032;32;316680;-80
2023/09/08 04:55:37;;;;;;;13.70;7.20;;;;;;;;;;4371403;32;317760;-81
2023/09/08 04:58:04;;;;;;;8.98;6.47;;;;;;;;;;4384616;32;318034;-78
2023/09/08 05:00:33;;;;;;;14.35;6.65;;;;;;;;;;4375420;32;317325;-80
2023/09/08 05:03:00;;;;;;;13.70;6.95;;;;;;;;;;4385530;32;317997;-80
2023/09/08 05:05:28;;;;;;;12.73;6.47;;;;;;;;;;4372259;32;350839;-79
2023/09/08 05:07:56;;;;;;;11.02;6.25;;;;;;;;;;4382475;32;317919;-79
2023/09/08 05:10:24;;;;;;;8.52;6.22;;;;;;;;;;4385585;32;317786;-80
2023/09/08 05:12:52;;;;;;;12.00;6.53;;;;;;;;;;4370260;32;416265;-79
2023/09/08 05:15:21;;;;;;;11.12;6.03;;;;;;;;;;4384927;32;318252;-80
2023/09/08 05:17:48;;;;;;;18.30;6.87;;;;;;;;;;4368913;32;349245;-80
2023/09/08 05:20:16;;;;;;;10.90;7.10;;;;;;;;;;4385202;32;317982;-83
2023/09/08 05:22:43;;;;;;;11.23;6.82;;;;;;;;;;4373541;32;317819;-80
2023/09/08 05:25:12;;;;;;;10.25;6.90;;;;;;;;;;4384975;32;317846;-81
2023/09/08 05:27:39;;;;;;;9.02;6.53;;;;;;;;;;4371306;32;318024;-83
2023/09/08 05:30:09;;;;;;;12.45;6.35;;;;;;;;;;4383956;32;316885;-79
2023/09/08 05:32:36;;;;;;;8.40;5.55;;;;;;;;;;4373470;32;318084;-78
2023/09/08 05:35:04;;;;;;;11.12;6.43;;;;;;;;;;4384702;32;316852;-80
2023/09/08 05:37:31;;;;;;;19.52;8.38;;;;;;;;;;4374460;32;318169;-79
2023/09/08 05:39:59;;;;;;;18.25;7.78;;;;;;;;;;4382044;32;317760;-79
2023/09/08 05:42:28;;;;;;;17.27;7.30;;;;;;;;;;4374456;32;317937;-79
2023/09/08 05:44:55;;;;;;;8.57;5.97;;;;;;;;;;4384281;32;317819;-81
2023/09/08 05:47:23;;;;;;;14.20;5.62;;;;;;;;;;4384617;32;316788;-80
2023/09/08 05:49:50;;;;;;;9.18;5.50;;;;;;;;;;4367250;32;417305;-81
2023/09/08 05:52:17;;;;;;;11.73;5.65;;;;;;;;;;4382892;32;316771;-81
2023/09/08 05:54:44;;;;;;;6.30;5.57;;;;;;;;;;4374223;32;318040;-81
2023/09/08 05:57:12;;;;;;;9.95;5.75;;;;;;;;;;4385605;32;316971;-81
2023/09/08 05:59:41;;;;;;;12.63;6.32;;;;;;;;;;4369943;32;316695;-83
2023/09/08 06:02:08;;;;;;;10.40;5.78;;;;;;;;;;4382750;32;351238;-81
2023/09/08 06:04:35;;;;;;;11.30;5.60;;;;;;;;;;4373858;32;317830;-81
2023/09/08 06:07:02;;;;;;;9.38;5.95;;;;;;;;;;4384771;32;317630;-81
2023/09/08 06:09:30;;;;;;;9.27;5.85;;;;;;;;;;4373661;32;344210;-81
2023/09/08 06:11:57;;;;;;;8.90;5.95;;;;;;;;;;4378588;32;317000;-81
2023/09/08 06:14:24;;;;;;;7.18;5.22;;;;;;;;;;4374238;32;316887;-81
2023/09/08 06:16:53;;;;;;;14.02;5.93;;;;;;;;;;4385158;32;317166;-82
2023/09/08 06:19:20;;;;;;;6.60;5.20;;;;;;;;;;4385211;32;317832;-80
2023/09/08 06:21:48;;;;;;;6.85;5.43;;;;;;;;;;4371267;32;316804;-82
2023/09/08 06:24:15;;;;;;;15.82;5.55;;;;;;;;;;4382040;32;316716;-82
2023/09/08 06:26:43;;;;;;;10.32;5.45;;;;;;;;;;4370306;32;317873;-80
2023/09/08 06:29:10;;;;;;;10.05;6.12;;;;;;;;;;4383324;32;317954;-81
2023/09/08 06:31:38;;;;;;;8.77;5.35;;;;;;;;;;4371955;32;318044;-82
2023/09/08 06:34:07;;;;;;;12.80;5.78;;;;;;;;;;4383783;32;352115;-80
2023/09/08 06:36:34;;;;;;;9.52;5.62;;;;;;;;;;4373044;32;318085;-81
2023/09/08 06:39:02;;;;;;;7.40;5.15;;;;;;;;;;4382192;32;316800;-80
2023/09/08 06:41:29;;;;;;;5.65;5.05;;;;;;;;;;4372889;32;316852;-81
2023/09/08 06:43:56;;;;;;;9.80;5.57;;;;;;;;;;4381675;32;316900;-81
2023/09/08 06:46:24;;;;;;;11.02;4.68;;;;;;;;;;4383289;32;316736;-80
2023/09/08 06:48:51;;;;;;;7.40;4.93;;;;;;;;;;4370396;32;417359;-80
2023/09/08 06:51:20;;;;;;;9.85;4.53;;;;;;;;;;4384395;32;317462;-82
2023/09/08 06:53:55;;;;;;;12.30;4.95;;;;;;;;;;4368259;32;316942;-81
2023/09/08 06:56:22;;;;;;;13.05;4.50;;;;;;;;;;4383738;32;317851;-79
2023/09/08 06:58:50;;;;;;;5.18;4.40;;;;;;;;;;4368711;32;417678;-79
2023/09/08 07:01:17;;;;;;;10.77;4.78;;;;;;;;;;4382121;32;316787;-81
2023/09/08 07:03:45;;;;;;;12.45;4.78;;;;;;;;;;4370242;32;318398;-82
2023/09/08 07:06:12;;;;;;;8.02;4.30;;;;;;;;;;4381316;32;317770;-81
2023/09/08 07:08:41;;;;;;;7.25;3.70;;;;;;;;;;4374274;32;316941;-81
2023/09/08 07:11:08;;;;;;;4.75;3.95;;;;;;;;;;4383319;32;316811;-83
2023/09/08 07:13:37;;;;;;;7.35;4.57;;;;;;;;;;4373101;32;317177;-81
2023/09/08 07:16:05;;;;;;;5.53;4.22;;;;;;;;;;4382638;32;316848;-79
2023/09/08 07:18:35;;;;;;;14.20;4.60;;;;;;;;;;4371139;32;338991;-79
2023/09/08 07:21:03;;;;;;;12.93;4.05;;;;;;;;;;4381099;32;317796;-80
2023/09/08 07:23:30;;;;;;;6.40;4.18;;;;;;;;;;4371094;32;343718;-83
2023/09/08 07:25:59;;;;;;;19.15;4.50;;;;;;;;;;4379642;32;316917;-79
2023/09/08 07:28:26;;;;;;;5.90;4.12;;;;;;;;;;4370465;32;354684;-81
2023/09/08 07:30:53;;;;;;;13.65;5.93;;;;;;;;;;4382363;32;316944;-82
2023/09/08 07:33:22;;;;;;;12.95;6.15;;;;;;;;;;4383312;32;317859;-81
2023/09/08 07:35:49;;;;;;;10.15;5.70;;;;;;;;;;4365155;32;417431;-81
2023/09/08 07:38:17;;;;;;;5.93;4.50;;;;;;;;;;4383616;32;317510;-81
2023/09/08 07:40:44;;;;;;;8.70;4.00;;;;;;;;;;4372900;32;316735;-80
2023/09/08 07:43:12;;;;;;;7.47;4.97;;;;;;;;;;4383004;32;316875;-81
2023/09/08 07:45:40;;;;;;;8.45;5.20;;;;;;;;;;4371110;32;316833;-81
2023/09/08 07:48:08;;;;;;;6.15;3.83;;;;;;;;;;4383285;32;316712;-80
2023/09/08 07:50:35;;;;;;;6.65;4.40;;;;;;;;;;4371737;32;356872;-81
2023/09/08 07:53:02;;;;;;;7.90;4.62;;;;;;;;;;4384657;32;316541;-80
2023/09/08 07:55:30;;;;;;;4.82;3.47;;;;;;;;;;4376161;32;317208;-79
2023/09/08 07:57:58;;;;;;;8.82;4.43;;;;;;;;;;4384757;32;316889;-81
2023/09/08 08:00:27;;;;;;;5.20;3.50;;;;;;;;;;4376754;32;316843;-81
2023/09/08 08:02:56;;;;;;;5.20;4.12;;;;;;;;;;4384949;32;316702;-81
2023/09/08 08:05:24;;;;;;;5.70;4.03;;;;;;;;;;4386612;32;316611;-81
2023/09/08 08:07:52;;;;;;;8.05;3.65;;;;;;;;;;4368590;32;416126;-81
2023/09/08 08:10:20;;;;;;;6.45;3.95;;;;;;;;;;4386830;32;316475;-81
2023/09/08 08:12:47;;;;;;;8.02;3.97;;;;;;;;;;4373829;32;316783;-80
2023/09/08 08:15:15;;;;;;;5.40;3.58;;;;;;;;;;4386453;32;316485;-78
2023/09/08 08:17:44;;;;;;;6.45;3.33;;;;;;;;;;4373424;32;316863;-80
2023/09/08 08:20:17;;;;;;;10.40;3.60;;;;;;;;;;4385871;32;316604;-80
2023/09/08 08:22:45;;;;;;;14.65;4.53;;;;;;;;;;4374753;32;317764;-81
2023/09/08 08:25:13;;;;;;;12.82;4.37;;;;;;;;;;4378086;32;317604;-81
2023/09/08 08:27:41;;;;;;;7.85;4.50;;;;;;;;;;4372107;32;317761;-81
2023/09/08 08:30:11;;;;;;;10.40;3.30;;;;;;;;;;4381735;32;316716;-80
2023/09/08 08:32:38;;;;;;;6.47;3.62;;;;;;;;;;4374587;32;318031;-80
2023/09/08 08:35:07;;;;;;;17.52;4.10;;;;;;;;;;4384829;32;316678;-80
2023/09/08 08:37:35;;;;;;;8.63;3.80;;;;;;;;;;4374749;32;317896;-82
2023/09/08 08:40:03;;;;;;;8.77;3.78;;;;;;;;;;4384712;32;316629;-80
2023/09/08 08:42:33;;;;;;;9.82;3.45;;;;;;;;;;4374304;32;317175;-82
2023/09/08 08:45:01;;;;;;;7.43;3.40;;;;;;;;;;4381635;32;316577;-81
2023/09/08 08:47:30;;;;;;;4.57;3.28;;;;;;;;;;4374198;32;316902;-81
2023/09/08 08:49:58;;;;;;;9.25;4.15;;;;;;;;;;4383027;32;316572;-80
2023/09/08 08:52:27;;;;;;;6.93;3.85;;;;;;;;;;4373322;32;331230;-83
2023/09/08 08:54:54;;;;;;;17.12;3.40;;;;;;;;;;4384375;32;317096;-81
2023/09/08 08:57:23;;;;;;;6.10;3.78;;;;;;;;;;4385566;32;317956;-80
2023/09/08 08:59:51;;;;;;;7.53;3.42;;;;;;;;;;4368541;32;416294;-82
2023/09/08 09:02:20;;;;;;;5.85;3.92;;;;;;;;;;4385740;32;316901;-80
2023/09/08 09:04:48;;;;;;;6.78;4.25;;;;;;;;;;4372059;32;321468;-80
2023/09/08 09:07:19;;;;;;;4.60;3.30;;;;;;;;;;4384434;32;357473;-79
2023/09/08 09:09:48;;;;;;;10.98;3.90;;;;;;;;;;4372639;32;316657;-80
2023/09/08 09:12:15;;;;;;;4.30;3.75;;;;;;;;;;4384584;32;317954;-80
2023/09/08 09:14:47;;;;;;;8.38;4.37;;;;;;;;;;4376080;32;316649;-81
2023/09/08 09:17:15;;;;;;;5.75;3.45;;;;;;;;;;4383730;32;316760;-81
2023/09/08 09:19:42;;;;;;;9.52;3.67;;;;;;;;;;4372700;32;316886;-81
2023/09/08 09:22:10;;;;;;;5.72;3.53;;;;;;;;;;4381306;32;317221;-80
2023/09/08 09:24:40;;;;;;;6.30;3.00;;;;;;;;;;4373603;32;350255;-82
2023/09/08 09:27:09;;;;;;;6.15;3.25;;;;;;;;;;4386218;32;316850;-79
2023/09/08 09:29:46;;;;;;;7.25;4.00;;;;;;;;;;4373003;32;316594;-81
2023/09/08 09:32:14;;;;;;;4.80;3.33;;;;;;;;;;4384110;32;316963;-79
2023/09/08 09:34:50;;;;;;;8.82;3.65;;;;;;;;;;4373611;32;316666;-79
2023/09/08 09:37:17;;;;;;;4.25;2.70;;;;;;;;;;4383486;32;316709;-79
2023/09/08 09:39:49;;;;;;;9.80;3.22;;;;;;;;;;4349680;32;316742;-79
2023/09/08 09:42:19;;;;;;;7.80;3.30;;;;;;;;;;4383805;32;316567;-81
2023/09/08 09:44:48;;;;;;;10.93;3.37;;;;;;;;;;4374761;32;316733;-80
2023/09/08 09:47:17;;;;;;;11.23;3.00;;;;;;;;;;4384391;32;317733;-79
2023/09/08 09:49:46;;;;;;;6.00;3.17;;;;;;;;;;4369776;32;317646;-80
2023/09/08 09:52:14;;;;;;;6.22;3.97;;;;;;;;;;4384580;32;316707;-80
2023/09/08 09:54:42;;;;;;;10.35;3.15;;;;;;;;;;4375592;32;316776;-80
2023/09/08 09:57:13;;;;;;;6.35;3.42;;;;;;;;;;4383716;32;318127;-79
2023/09/08 09:59:42;;;;;;;6.18;4.03;;;;;;;;;;4371454;32;316572;-80
2023/09/08 10:02:14;;;;;;;6.53;3.75;;;;;;;;;;4381723;32;316849;-79
2023/09/08 10:04:43;;;;;;;7.70;3.33;;;;;;;;;;4372956;32;338983;-80
2023/09/08 10:07:10;;;;;;;6.40;3.33;;;;;;;;;;4384065;32;316569;-81
2023/09/08 10:09:38;;;;;;;3.62;2.80;;;;;;;;;;4372682;32;316795;-81
2023/09/08 10:12:06;;;;;;;10.25;3.87;;;;;;;;;;4382382;32;317182;-79
2023/09/08 10:14:37;;;;;;;11.70;3.08;;;;;;;;;;4371589;32;323869;-80
2023/09/08 10:17:09;;;;;;;10.55;3.35;;;;;;;;;;4382474;32;318077;-81
2023/09/08 10:19:41;;;;;;;8.95;3.62;;;;;;;;;;4373069;32;317676;-82
2023/09/08 10:22:13;;;;;;;5.05;2.87;;;;;;;;;;4382262;32;316832;-81
2023/09/08 10:24:42;;;;;;;12.65;2.83;;;;;;;;;;4375125;32;316758;-81
2023/09/08 10:27:10;;;;;;;5.90;3.35;;;;;;;;;;4384299;32;317850;-81
2023/09/08 10:29:38;;;;;;;4.53;3.33;;;;;;;;;;4372854;32;316775;-81
2023/09/08 10:32:09;;;;;;;5.95;3.37;;;;;;;;;;4383328;32;317017;-80
2023/09/08 10:34:37;;;;;;;10.57;3.47;;;;;;;;;;4373506;32;316828;-80
2023/09/08 10:37:18;;;;;;;4.87;3.37;;;;;;;;;;4382657;32;317794;-80
2023/09/08 10:39:46;;;;;;;9.85;4.03;;;;;;;;;;4369905;32;316829;-80
2023/09/08 10:42:25;;;;;;;5.97;3.28;;;;;;;;;;4384303;32;316809;-80
2023/09/08 10:45:20;;;;;;;3.72;3.08;;;;;;;;;;4370182;32;416086;-81
2023/09/08 10:47:58;;;;;;;6.93;3.22;;;;;;;;;;4370211;32;325839;-82
2023/09/08 10:50:28;;;;;;;9.95;3.40;;;;;;;;;;4374384;32;317044;-82
2023/09/08 10:53:10;;;;;;;5.15;3.17;;;;;;;;;;4383320;32;315879;-82
2023/09/08 10:55:40;;;;;;;4.00;2.92;;;;;;;;;;4368875;32;316708;-83
2023/09/08 10:58:10;;;;;;;7.40;3.37;;;;;;;;;;4384317;32;316659;-82
2023/09/08 11:00:48;;;;;;;4.70;3.53;;;;;;;;;;4372177;32;316535;-82
2023/09/08 11:03:28;;;;;;;4.60;3.47;;;;;;;;;;4384366;32;316694;-82
2023/09/08 11:05:55;;;;;;;4.05;2.87;;;;;;;;;;4367871;32;417093;-82
2023/09/08 11:08:23;;;;;;;15.32;4.25;;;;;;;;;;4381774;32;316779;-82
2023/09/08 11:10:51;;;;;;;4.62;3.28;;;;;;;;;;4369450;32;417317;-82
2023/09/08 11:13:18;;;;;;;4.05;3.10;;;;;;;;;;4384037;32;316679;-82
2023/09/08 11:15:46;;;;;;;4.12;3.08;;;;;;;;;;4369088;32;316739;-80
2023/09/08 11:18:13;;;;;;;5.20;3.25;;;;;;;;;;4384572;32;316826;-80
2023/09/08 11:20:44;;;;;;;6.07;3.47;;;;;;;;;;4372002;32;316699;-82
2023/09/08 11:23:11;;;;;;;7.07;3.62;;;;;;;;;;4381664;32;316846;-81
2023/09/08 11:25:39;;;;;;;8.18;3.62;;;;;;;;;;4370255;32;316876;-81
2023/09/08 11:28:07;;;;;;;10.20;3.55;;;;;;;;;;4382981;32;316830;-81
2023/09/08 11:30:35;;;;;;;8.30;4.00;;;;;;;;;;4371951;32;317739;-81
2023/09/08 11:33:03;;;;;;;16.80;3.87;;;;;;;;;;4382900;32;316760;-80
2023/09/08 11:35:33;;;;;;;10.63;3.80;;;;;;;;;;4373205;32;317893;-81
2023/09/08 11:38:04;;;;;;;5.87;3.62;;;;;;;;;;4379339;32;317648;-81
2023/09/08 11:40:34;;;;;;;11.65;3.53;;;;;;;;;;4371638;32;316863;-81
2023/09/08 11:43:01;;;;;;;5.40;3.17;;;;;;;;;;4380612;32;317628;-83
2023/09/08 11:45:28;;;;;;;5.25;3.30;;;;;;;;;;4372708;32;316805;-81
2023/09/08 11:47:56;;;;;;;3.33;3.00;;;;;;;;;;4380603;32;316835;-81
2023/09/08 11:50:24;;;;;;;9.45;2.95;;;;;;;;;;4383561;32;334653;-81
2023/09/08 11:52:53;;;;;;;4.90;3.30;;;;;;;;;;4367842;32;416181;-81
2023/09/08 11:55:23;;;;;;;3.83;2.70;;;;;;;;;;4383433;32;316793;-81
2023/09/08 11:57:54;;;;;;;5.12;3.30;;;;;;;;;;4367952;32;416508;-82
2023/09/08 12:00:23;;;;;;;4.53;3.22;;;;;;;;;;4381997;32;315735;-82
2023/09/08 12:02:51;;;;;;;4.50;2.67;;;;;;;;;;4370669;32;415813;-81
2023/09/08 12:05:23;;;;;;;3.03;2.53;;;;;;;;;;4383970;32;317212;-81
2023/09/08 12:07:51;;;;;;;3.83;2.92;;;;;;;;;;4365912;32;416049;-82
2023/09/08 12:10:19;;;;;;;4.78;3.47;;;;;;;;;;4380446;32;316555;-81
2023/09/08 12:12:53;;;;;;;6.25;3.00;;;;;;;;;;4371725;32;316540;-81
2023/09/08 12:15:33;;;;;;;4.25;3.10;;;;;;;;;;4382359;32;316652;-82
2023/09/08 12:18:01;;;;;;;5.60;3.05;;;;;;;;;;4368391;32;415952;-81
2023/09/08 12:20:29;;;;;;;5.30;3.15;;;;;;;;;;4370321;32;340727;-82
2023/09/08 12:23:00;;;;;;;6.65;3.00;;;;;;;;;;4384148;32;316673;-81
2023/09/08 12:25:28;;;;;;;3.87;2.62;;;;;;;;;;4371867;32;316691;-82
2023/09/08 12:27:56;;;;;;;6.82;2.62;;;;;;;;;;4377242;32;316954;-82
2023/09/08 12:30:29;;;;;;;5.57;2.80;;;;;;;;;;4381852;32;316379;-81
2023/09/08 12:32:58;;;;;;;3.50;2.50;;;;;;;;;;4369785;32;415820;-81
2023/09/08 12:35:27;;;;;;;3.95;2.72;;;;;;;;;;4371722;32;316693;-82
2023/09/08 12:38:05;;;;;;;7.53;3.47;;;;;;;;;;4378117;32;316606;-82
2023/09/08 12:40:35;;;;;;;5.05;3.28;;;;;;;;;;4373724;32;316931;-81
2023/09/08 12:43:04;;;;;;;7.22;3.20;;;;;;;;;;4385443;32;317038;-82
2023/09/08 12:45:32;;;;;;;6.97;3.92;;;;;;;;;;4371109;32;316815;-81
2023/09/08 12:48:01;;;;;;;4.07;3.45;;;;;;;;;;4382708;32;316726;-81
2023/09/08 12:50:29;;;;;;;10.73;3.70;;;;;;;;;;4372446;32;346718;-81
2023/09/08 12:52:58;;;;;;;6.95;3.00;;;;;;;;;;4385575;32;317751;-81
2023/09/08 12:55:25;;;;;;;8.02;2.90;;;;;;;;;;4374137;32;316861;-83
2023/09/08 12:57:54;;;;;;;3.37;2.62;;;;;;;;;;4381389;32;340332;-85
2023/09/08 13:00:24;;;;;;;7.18;3.42;;;;;;;;;;4384891;32;316908;-82
2023/09/08 13:02:52;;;;;;;12.60;3.22;;;;;;;;;;4369900;32;416967;-81
2023/09/08 13:05:22;;;;;;;3.83;3.12;;;;;;;;;;4386304;32;317876;-88
2023/09/08 13:07:49;;;;;;;9.88;2.70;;;;;;;;;;4372877;32;316166;-84
2023/09/08 13:10:17;;;;;;;10.27;3.30;;;;;;;;;;4384089;32;316842;-83
2023/09/08 13:12:44;;;;;;;10.75;3.50;;;;;;;;;;4376436;32;317612;-81
2023/09/08 13:15:11;;;;;;;6.35;3.25;;;;;;;;;;4385695;32;317734;-81
2023/09/08 13:17:40;;;;;;;11.63;3.55;;;;;;;;;;4371246;32;316766;-86
2023/09/08 13:20:09;;;;;;;5.90;2.92;;;;;;;;;;4383595;32;317651;-86
2023/09/08 13:22:36;;;;;;;6.97;3.10;;;;;;;;;;4375429;32;316514;-80
2023/09/08 13:25:04;;;;;;;4.37;2.78;;;;;;;;;;4385590;32;317015;-81
2023/09/08 13:27:31;;;;;;;5.28;3.10;;;;;;;;;;4374809;32;316956;-80
2023/09/08 13:30:09;;;;;;;6.65;3.08;;;;;;;;;;4380879;32;316898;-81
2023/09/08 13:32:37;;;;;;;6.62;3.50;;;;;;;;;;4371726;32;317108;-81
2023/09/08 13:35:06;;;;;;;4.53;3.35;;;;;;;;;;4385454;32;316815;-81
2023/09/08 13:37:37;;;;;;;4.25;2.80;;;;;;;;;;4374665;32;316779;-81
2023/09/08 13:40:05;;;;;;;5.25;4.03;;;;;;;;;;4383141;32;316922;-80
2023/09/08 13:42:33;;;;;;;8.55;3.08;;;;;;;;;;4374098;32;317035;-81
2023/09/08 13:45:00;;;;;;;3.65;2.90;;;;;;;;;;4381263;32;316813;-81
2023/09/08 13:47:27;;;;;;;6.65;3.10;;;;;;;;;;4374848;32;316969;-81
2023/09/08 13:49:55;;;;;;;6.78;2.95;;;;;;;;;;4379735;32;316644;-81
2023/09/08 13:52:23;;;;;;;7.70;3.45;;;;;;;;;;4381009;32;316809;-80
2023/09/08 13:54:51;;;;;;;7.30;2.97;;;;;;;;;;4371254;32;416458;-81
2023/09/08 13:57:19;;;;;;;6.50;3.35;;;;;;;;;;4384755;32;316796;-80
2023/09/08 13:59:46;;;;;;;7.47;3.40;;;;;;;;;;4372781;32;316713;-80
2023/09/08 14:02:13;;;;;;;3.42;2.85;;;;;;;;;;4384185;32;316842;-80
2023/09/08 14:04:41;;;;;;;5.53;3.35;;;;;;;;;;4373545;32;316984;-79
2023/09/08 14:07:09;;;;;;;4.82;2.80;;;;;;;;;;4384172;32;316756;-81
2023/09/08 14:09:38;;;;;;;3.75;2.87;;;;;;;;;;4371136;32;316747;-83
2023/09/08 14:12:06;;;;;;;8.52;3.35;;;;;;;;;;4384601;32;316868;-82
2023/09/08 14:14:33;;;;;;;6.22;3.42;;;;;;;;;;4375506;32;316626;-81
2023/09/08 14:17:01;;;;;;;6.22;3.28;;;;;;;;;;4383340;32;317018;-81
2023/09/08 14:19:28;;;;;;;8.25;3.35;;;;;;;;;;4374781;32;316899;-81
2023/09/08 14:21:56;;;;;;;12.55;3.53;;;;;;;;;;4379000;32;316863;-81
2023/09/08 14:24:24;;;;;;;7.57;2.95;;;;;;;;;;4384425;32;317710;-81
2023/09/08 14:26:53;;;;;;;9.85;3.42;;;;;;;;;;4371730;32;415946;-81
2023/09/08 14:29:22;;;;;;;6.12;2.70;;;;;;;;;;4372585;32;346103;-82
2023/09/08 14:31:49;;;;;;;9.40;3.30;;;;;;;;;;4380268;32;317097;-82
2023/09/08 14:34:17;;;;;;;5.20;3.25;;;;;;;;;;4374117;32;316862;-85